VTCN

Details ICAO VTCN (NNT)
Name Nan
Region Thailand
Timezone Asia/Bangkok (UTC+7.0)
Plans Departing 12
Arriving 10
Stats Elevation 685 ft / 209 m (AMSL)
Location 18.807914° 100.783419°
Runways 1
Magnetic Variation 0.835° W
Sunrise 2017-12-13 23:42:32 UTC / 2017-12-14 06:42:32 Local
Sunset 2017-12-14 10:43:06 UTC / 2017-12-14 17:43:06 Local
Advertisement - Login to hide

Runways

ID Width Length Bearing (true) Bearing (mag) Surface Threshold Offset Overrun Length
02 148 ft / 45 m 6,551 ft / 1,997 m 20.58° 21.41° Asphalt 0 ft / 0 m 500 ft / 152 m
20 148 ft / 45 m 6,551 ft / 1,997 m 200.58° 201.41° Asphalt 0 ft / 0 m 500 ft / 152 m

Approach Navaids

Runway Type Ident Frequency Range Bearing (true) Bearing (mag) Slope Elevation
02 Localiser INAN 110.30 MHz 18 nm / 33 km 20.59° 21.43° - 687 ft / 209 m (AMSL)
02 Glidescope INAN 110.30 MHz 10 nm / 19 km 20.58° 21.42° 3.40° 685 ft / 209 m (AMSL)
02 DME INAN 110.30 MHz 18 nm / 33 km - - - 687 ft / 209 m (AMSL)

Map

Weather


0- 5 10 15 20 25 30 35+ Temperature / ° C

Clouds and Precipitation
Forecast for 2017-12-14 12:00 UTC. Updated an hour ago

Ground ~20,000 ft ~40,000 ft Winds

METAR

VTCN 140900Z VRB02KT 9999 FEW025 31/12 Q1010

TAF

TAF VTCN 140500Z 1406/1506 04005KT 9999 FEW030

Frequencies

Tower 118.55 MHz TWR
Approach 120.25 MHz APP
Warning: Do not use this data for real-world aviation or navigation. No guarantee of current accuracy is given.